createdAt,value
2018-06-12T00:01:05.341Z,84.11
2018-06-12T00:03:34.930Z,84.04
2018-06-12T00:06:04.634Z,84.62
2018-06-12T00:08:34.294Z,84.79
2018-06-12T00:11:03.121Z,84.35
2018-06-12T00:13:32.017Z,84.54
2018-06-12T00:16:01.704Z,84.79
2018-06-12T00:18:31.493Z,84.36
2018-06-12T00:21:00.366Z,84.78
2018-06-12T00:23:29.268Z,85.14
2018-06-12T00:25:58.120Z,84.53
2018-06-12T00:28:27.181Z,85.13
2018-06-12T00:30:56.595Z,85.23
2018-06-12T00:33:26.099Z,84.91
2018-06-12T00:35:56.069Z,84.67
2018-06-12T00:38:25.183Z,85.55
2018-06-12T00:40:54.968Z,85.65
2018-06-12T00:43:24.860Z,85.36
2018-06-12T00:45:53.828Z,85.20
2018-06-12T00:48:22.773Z,85.10
2018-06-12T00:50:52.506Z,85.63
2018-06-12T00:53:21.404Z,85.10
2018-06-12T00:55:50.215Z,85.75
2018-06-12T00:58:20.034Z,85.79
2018-06-12T01:00:48.880Z,85.45
2018-06-12T01:03:19.028Z,84.62
2018-06-12T01:05:48.756Z,85.55
2018-06-12T01:08:18.451Z,85.33
2018-06-12T01:10:47.347Z,84.82
2018-06-12T01:13:17.116Z,84.96
2018-06-12T01:15:46.783Z,85.33
2018-06-12T01:18:16.189Z,85.49
2018-06-12T01:20:45.235Z,85.14
2018-06-12T01:23:14.146Z,85.25
2018-06-12T01:25:43.329Z,84.41
2018-06-12T01:28:12.233Z,84.22
2018-06-12T01:30:41.842Z,84.55
2018-06-12T01:33:10.960Z,84.06
2018-06-12T01:35:41.038Z,83.97
2018-06-12T01:38:10.141Z,83.43
2018-06-12T01:40:40.248Z,83.42
2018-06-12T01:43:09.363Z,83.07
2018-06-12T01:45:38.578Z,83.29
2018-06-12T01:48:08.478Z,83.17
2018-06-12T01:50:37.685Z,83.86
2018-06-12T01:53:06.672Z,83.33
2018-06-12T01:55:35.795Z,83.62
2018-06-12T01:58:05.174Z,83.47
2018-06-12T02:00:34.138Z,82.99
2018-06-12T02:03:04.065Z,83.43
2018-06-12T02:05:33.821Z,83.08
2018-06-12T02:08:03.595Z,82.83
2018-06-12T02:10:32.381Z,83.36
2018-06-12T02:13:02.655Z,83.02
2018-06-12T02:15:32.655Z,82.87
2018-06-12T02:18:02.445Z,82.94
2018-06-12T02:20:31.390Z,83.64
2018-06-12T02:23:00.256Z,83.82
2018-06-12T02:25:29.191Z,83.92
2018-06-12T02:27:58.006Z,83.39
2018-06-12T02:30:27.187Z,83.46
2018-06-12T02:32:56.172Z,83.87
2018-06-12T02:35:26.013Z,83.32
2018-06-12T02:37:56.026Z,83.44
2018-06-12T02:40:26.866Z,83.68
2018-06-12T02:42:55.830Z,83.49
2018-06-12T02:45:25.553Z,83.29
2018-06-12T02:47:54.707Z,84.35
2018-06-12T02:50:23.650Z,83.57
2018-06-12T02:52:52.590Z,83.01
2018-06-12T02:55:21.407Z,82.95
2018-06-12T02:57:51.358Z,83.21
2018-06-12T03:00:20.391Z,83.09
2018-06-12T03:02:49.210Z,82.97
2018-06-12T03:05:19.482Z,83.66
2018-06-12T03:07:49.139Z,83.77
2018-06-12T03:10:18.080Z,83.30
2018-06-12T03:12:47.796Z,83.25
2018-06-12T03:15:17.496Z,83.22
2018-06-12T03:17:47.148Z,82.51
2018-06-12T03:20:15.953Z,79.98
2018-06-12T03:22:44.890Z,77.47
2018-06-12T03:25:13.758Z,74.07
2018-06-12T03:27:42.543Z,71.82
2018-06-12T03:30:11.567Z,68.49
2018-06-12T03:32:40.730Z,65.90
2018-06-12T03:35:10.336Z,64.48
2018-06-12T03:37:40.334Z,62.81
2018-06-12T03:40:10.210Z,59.59
2018-06-12T03:42:39.938Z,59.83
2018-06-12T03:45:09.023Z,59.62
2018-06-12T03:47:38.482Z,58.71
2018-06-12T03:50:07.450Z,56.87
2018-06-12T03:52:36.293Z,57.14
2018-06-12T03:55:05.616Z,56.37
2018-06-12T03:57:35.342Z,59.24
2018-06-12T04:00:05.026Z,60.83
2018-06-12T04:02:33.875Z,63.06
2018-06-12T04:05:04.077Z,65.08
2018-06-12T04:07:33.720Z,66.57
2018-06-12T04:10:02.589Z,68.34
2018-06-12T04:12:31.443Z,69.36
2018-06-12T04:15:01.028Z,68.98
2018-06-12T04:17:30.753Z,70.79
2018-06-12T04:19:59.605Z,70.49
2018-06-12T04:22:28.381Z,71.38
2018-06-12T04:24:57.191Z,72.55
2018-06-12T04:27:26.014Z,71.36
2018-06-12T04:29:55.007Z,72.16
2018-06-12T04:32:24.025Z,71.44
2018-06-12T04:34:53.658Z,71.22
2018-06-12T04:37:22.781Z,71.55
2018-06-12T04:39:52.717Z,71.53
2018-06-12T04:42:22.254Z,72.05
2018-06-12T04:44:51.195Z,70.01
2018-06-12T04:47:20.071Z,71.62
2018-06-12T04:49:48.895Z,71.92
2018-06-12T04:52:17.709Z,71.14
2018-06-12T04:54:46.582Z,71.07
2018-06-12T04:57:15.359Z,71.88
2018-06-12T04:59:45.101Z,71.62
2018-06-12T05:02:13.844Z,71.04
2018-06-12T05:04:42.630Z,70.95
2018-06-12T05:07:12.475Z,69.80
2018-06-12T05:09:41.322Z,70.22
2018-06-12T05:12:10.346Z,70.99
2018-06-12T05:14:40.012Z,70.26
2018-06-12T05:17:09.619Z,70.49
2018-06-12T05:19:38.505Z,71.57
2018-06-12T05:22:07.389Z,70.24
2018-06-12T05:24:36.315Z,70.32
2018-06-12T05:27:05.055Z,70.18
2018-06-12T05:29:34.047Z,71.20
2018-06-12T05:32:03.003Z,71.07
2018-06-12T05:34:32.330Z,70.49
2018-06-12T05:37:01.067Z,70.37
2018-06-12T05:39:30.420Z,69.39
2018-06-12T05:41:59.914Z,70.91
2018-06-12T05:44:28.698Z,70.18
2018-06-12T05:46:57.475Z,70.14
2018-06-12T05:49:26.363Z,69.57
2018-06-12T05:51:55.160Z,70.41
2018-06-12T05:54:24.595Z,69.82
2018-06-12T05:56:53.490Z,70.00
2018-06-12T05:59:23.248Z,71.35
2018-06-12T06:01:52.031Z,70.59
2018-06-12T06:04:21.186Z,72.11
2018-06-12T06:06:51.199Z,72.86
2018-06-12T06:09:20.643Z,73.20
2018-06-12T06:11:49.431Z,72.14
2018-06-12T06:14:18.812Z,71.70
2018-06-12T06:16:48.100Z,72.23
2018-06-12T06:19:16.908Z,71.62
2018-06-12T06:21:45.654Z,71.50
2018-06-12T06:24:14.421Z,71.99
2018-06-12T06:26:43.258Z,71.67
2018-06-12T06:29:12.218Z,70.57
2018-06-12T06:31:41.082Z,70.80
2018-06-12T06:34:10.082Z,69.30
2018-06-12T06:36:39.797Z,68.72
2018-06-12T06:39:09.752Z,67.24
2018-06-12T06:41:39.487Z,67.73
2018-06-12T06:44:08.564Z,68.14
2018-06-12T06:46:37.452Z,66.66
2018-06-12T06:49:06.389Z,66.08
2018-06-12T06:51:35.268Z,65.40
2018-06-12T06:54:05.220Z,65.38
2018-06-12T06:56:34.040Z,64.59
2018-06-12T06:59:03.823Z,65.82
2018-06-12T07:01:32.591Z,66.09
2018-06-12T07:04:01.351Z,67.22
2018-06-12T07:06:31.530Z,66.93
2018-06-12T07:09:00.445Z,68.02
2018-06-12T07:11:29.251Z,67.25
2018-06-12T07:13:59.206Z,67.76
2018-06-12T07:16:28.750Z,65.86
2018-06-12T07:18:57.503Z,66.50
2018-06-12T07:21:26.403Z,67.36
2018-06-12T07:23:55.352Z,67.36
2018-06-12T07:26:24.264Z,68.17
2018-06-12T07:28:53.173Z,66.25
2018-06-12T07:31:21.990Z,66.59
2018-06-12T07:33:51.978Z,66.27
2018-06-12T07:36:21.463Z,66.61
2018-06-12T07:38:51.260Z,65.84
2018-06-12T07:41:20.825Z,66.14
2018-06-12T07:43:49.578Z,64.19
2018-06-12T07:46:18.359Z,63.28
2018-06-12T07:48:47.235Z,61.85
2018-06-12T07:51:16.031Z,60.96
2018-06-12T07:53:45.101Z,61.10
2018-06-12T07:56:13.933Z,61.19
2018-06-12T07:58:43.840Z,60.41
2018-06-12T08:01:12.591Z,59.72
2018-06-12T08:03:41.490Z,59.04
2018-06-12T08:06:11.135Z,59.24
2018-06-12T08:08:40.756Z,58.12
2018-06-12T08:11:09.623Z,59.36
2018-06-12T08:13:39.298Z,58.70
2018-06-12T08:16:08.806Z,58.92
2018-06-12T08:18:38.356Z,58.65
2018-06-12T08:21:07.207Z,57.13
2018-06-12T08:23:35.995Z,58.20
2018-06-12T08:26:04.803Z,57.77
2018-06-12T08:28:33.570Z,56.50
2018-06-12T08:31:03.035Z,58.43
2018-06-12T08:33:31.827Z,57.98
2018-06-12T08:36:01.431Z,57.30
2018-06-12T08:38:31.638Z,55.78
2018-06-12T08:41:01.234Z,54.95
2018-06-12T08:43:29.986Z,55.68
2018-06-12T08:45:58.747Z,54.63
2018-06-12T08:48:27.628Z,54.34
2018-06-12T08:50:56.494Z,54.31
2018-06-12T08:53:26.006Z,55.10
2018-06-12T08:55:54.898Z,54.71
2018-06-12T08:58:25.234Z,54.56
2018-06-12T09:00:54.100Z,54.96
2018-06-12T09:03:22.918Z,55.94
2018-06-12T09:05:52.680Z,55.77
2018-06-12T09:08:22.098Z,55.70
2018-06-12T09:10:50.850Z,56.91
2018-06-12T09:13:21.546Z,55.57
2018-06-12T09:15:50.974Z,56.46
2018-06-12T09:18:20.478Z,55.36
2018-06-12T09:20:49.312Z,55.18
2018-06-12T09:23:18.116Z,55.13
2018-06-12T09:25:46.932Z,55.41
2018-06-12T09:28:16.314Z,57.13
2018-06-12T09:30:45.084Z,55.12
2018-06-12T09:33:13.877Z,56.08
2018-06-12T09:35:43.583Z,55.92
2018-06-12T09:38:13.094Z,55.66
2018-06-12T09:40:42.601Z,55.64
2018-06-12T09:43:11.662Z,55.14
2018-06-12T09:45:40.687Z,53.60
2018-06-12T09:48:09.582Z,52.59
2018-06-12T09:50:38.503Z,53.67
2018-06-12T09:53:07.495Z,53.41
2018-06-12T09:55:36.535Z,52.59
2018-06-12T09:58:06.478Z,52.85
2018-06-12T10:00:40.476Z,52.76
2018-06-12T10:03:09.474Z,51.28
2018-06-12T10:05:39.322Z,49.99
2018-06-12T10:08:09.047Z,51.63
2018-06-12T10:10:37.992Z,52.95
2018-06-12T10:13:07.958Z,51.72
2018-06-12T10:15:38.062Z,51.22
2018-06-12T10:20:35.727Z,50.38
2018-06-12T10:23:04.499Z,50.75
2018-06-12T10:25:33.385Z,50.74
2018-06-12T10:28:03.005Z,50.49
2018-06-12T10:30:31.831Z,51.45
2018-06-12T10:33:00.591Z,51.62
2018-06-12T10:35:30.593Z,51.23
2018-06-12T10:37:59.827Z,51.39
2018-06-12T10:40:29.316Z,49.64
2018-06-12T10:42:58.088Z,50.03
2018-06-12T10:45:26.964Z,51.26
2018-06-12T10:47:55.853Z,50.18
2018-06-12T10:50:24.638Z,50.83
2018-06-12T10:52:53.565Z,51.14
2018-06-12T10:55:22.643Z,50.60
2018-06-12T10:57:52.955Z,51.46
2018-06-12T11:00:21.807Z,50.99
2018-06-12T11:02:50.794Z,51.37
2018-06-12T11:05:20.547Z,50.74
2018-06-12T11:07:50.594Z,50.29
2018-06-12T11:10:19.353Z,50.01
2018-06-12T11:12:48.860Z,49.48
2018-06-12T11:15:18.348Z,48.77
2018-06-12T11:17:47.930Z,49.87
2018-06-12T11:20:16.709Z,48.56
2018-06-12T11:22:45.556Z,47.23
2018-06-12T11:25:15.218Z,46.94
2018-06-12T11:27:44.419Z,45.21
2018-06-12T11:30:13.227Z,45.54
2018-06-12T11:32:42.048Z,45.70
2018-06-12T11:35:11.640Z,46.63
2018-06-12T11:37:41.582Z,47.69
2018-06-12T11:40:11.737Z,48.64
2018-06-12T11:42:40.732Z,47.14
2018-06-12T11:45:09.961Z,45.95
2018-06-12T11:47:39.208Z,45.98
2018-06-12T11:50:08.082Z,45.26
2018-06-12T11:52:36.983Z,44.75
2018-06-12T11:55:06.181Z,43.73
2018-06-12T11:57:36.290Z,44.37
2018-06-12T12:00:05.558Z,45.45
2018-06-12T12:02:34.464Z,46.65
2018-06-12T12:05:03.887Z,48.54
2018-06-12T12:07:33.478Z,48.96
2018-06-12T12:10:02.284Z,49.96
2018-06-12T12:12:31.154Z,49.08
2018-06-12T12:15:00.922Z,49.17
2018-06-12T12:17:30.669Z,49.10
2018-06-12T12:19:59.468Z,48.28
2018-06-12T12:22:28.998Z,48.21
2018-06-12T12:24:58.347Z,48.17
2018-06-12T12:27:27.126Z,47.62
2018-06-12T12:29:56.136Z,47.92
2018-06-12T12:32:25.017Z,45.61
2018-06-12T12:34:55.012Z,46.09
2018-06-12T12:37:24.131Z,47.07
2018-06-12T12:39:53.789Z,44.50
2018-06-12T12:42:23.261Z,45.45
2018-06-12T12:44:52.075Z,43.03
2018-06-12T12:47:20.913Z,42.90
2018-06-12T12:49:49.704Z,43.00
2018-06-12T12:52:18.487Z,42.60
2018-06-12T12:54:47.441Z,42.58
2018-06-12T12:57:16.377Z,42.49
2018-06-12T12:59:45.944Z,43.15
2018-06-12T13:02:15.651Z,44.32
2018-06-12T13:04:44.404Z,43.55
2018-06-12T13:07:14.990Z,45.49
2018-06-12T13:09:43.819Z,45.52
2018-06-12T13:12:13.657Z,43.97
2018-06-12T13:14:43.295Z,45.06
2018-06-12T13:17:12.919Z,44.84
2018-06-12T13:19:42.659Z,46.07
2018-06-12T13:22:11.586Z,45.45
2018-06-12T13:24:40.745Z,45.84
2018-06-12T13:27:09.757Z,44.98
2018-06-12T13:29:38.961Z,44.48
2018-06-12T13:32:07.984Z,45.62
2018-06-12T13:34:37.825Z,44.49
2018-06-12T13:37:06.700Z,44.03
2018-06-12T13:39:36.131Z,43.83
2018-06-12T13:42:06.009Z,44.25
2018-06-12T13:44:34.776Z,44.45
2018-06-12T13:47:03.664Z,45.14
2018-06-12T13:49:32.482Z,45.43
2018-06-12T13:52:01.324Z,45.56
2018-06-12T13:54:30.417Z,44.78
2018-06-12T13:56:59.288Z,43.87
2018-06-12T13:59:28.861Z,42.97
2018-06-12T14:01:57.659Z,43.49
2018-06-12T14:04:26.643Z,43.34
2018-06-12T14:06:56.177Z,42.18
2018-06-12T14:09:25.664Z,41.97
2018-06-12T14:11:54.627Z,42.95
2018-06-12T14:14:24.367Z,42.70
2018-06-12T14:16:54.122Z,42.28
2018-06-12T14:19:23.580Z,42.87
2018-06-12T14:21:52.415Z,42.31
2018-06-12T14:24:21.614Z,41.40
2018-06-12T14:26:50.476Z,42.42
2018-06-12T14:29:19.523Z,42.72
2018-06-12T14:31:48.598Z,41.79
2018-06-12T14:34:17.439Z,42.10
2018-06-12T14:36:46.850Z,42.91
2018-06-12T14:39:16.607Z,42.47
2018-06-12T14:41:46.107Z,42.36
2018-06-12T14:44:14.965Z,42.58
2018-06-12T14:46:43.796Z,42.99
2018-06-12T14:49:12.655Z,42.88
2018-06-12T14:51:41.548Z,42.80
2018-06-12T14:54:10.709Z,42.39
2018-06-12T14:56:39.728Z,42.92
2018-06-12T14:59:09.493Z,40.91
2018-06-12T15:01:39.077Z,40.02
2018-06-12T15:04:07.975Z,38.96
2018-06-12T15:06:37.904Z,39.66
2018-06-12T15:09:08.257Z,39.87
2018-06-12T15:11:37.154Z,40.77
2018-06-12T15:14:06.767Z,40.40
2018-06-12T15:16:36.127Z,40.06
2018-06-12T15:19:04.923Z,40.17
2018-06-12T15:21:33.698Z,39.04
2018-06-12T15:24:02.585Z,38.42
2018-06-12T15:26:31.371Z,37.90
2018-06-12T15:29:00.307Z,37.82
2018-06-12T15:31:29.159Z,38.13
2018-06-12T15:33:57.904Z,36.12
2018-06-12T15:36:27.614Z,33.97
2018-06-12T15:38:57.245Z,34.29
2018-06-12T15:41:26.741Z,34.09
2018-06-12T15:43:55.549Z,32.68
2018-06-12T15:46:24.351Z,31.10
2018-06-12T15:48:53.130Z,31.15
2018-06-12T15:51:21.867Z,30.18
2018-06-12T15:53:50.787Z,29.63
2018-06-12T15:56:19.590Z,28.18
2018-06-12T15:58:49.051Z,26.84
2018-06-12T16:01:18.757Z,26.74
2018-06-12T16:03:47.539Z,28.51
2018-06-12T16:06:16.942Z,27.10
2018-06-12T16:08:46.913Z,26.41
2018-06-12T16:11:15.778Z,25.74
2018-06-12T16:13:45.455Z,26.65
2018-06-12T16:16:15.360Z,26.12
2018-06-12T16:18:44.344Z,25.69
2018-06-12T16:21:13.186Z,24.89
2018-06-12T16:23:42.096Z,25.44
2018-06-12T16:26:11.093Z,26.12
2018-06-12T16:28:40.301Z,26.61
2018-06-12T16:31:09.266Z,27.05
2018-06-12T16:33:38.267Z,26.62
2018-06-12T16:36:08.305Z,26.09
2018-06-12T16:38:37.793Z,26.15
2018-06-12T16:41:07.447Z,26.12
2018-06-12T16:43:36.335Z,26.75
2018-06-12T16:46:05.333Z,26.59
2018-06-12T16:48:34.183Z,26.25
2018-06-12T16:51:03.020Z,26.84
2018-06-12T16:53:31.928Z,25.28
2018-06-12T16:56:01.034Z,25.40
2018-06-12T16:58:30.509Z,25.69
2018-06-12T17:00:59.938Z,26.16
2018-06-12T17:03:28.751Z,26.79
2018-06-12T17:05:58.077Z,27.69
2018-06-12T17:08:27.724Z,27.35
2018-06-12T17:10:57.134Z,27.57
2018-06-12T17:13:26.854Z,26.74
2018-06-12T17:15:56.302Z,27.90
2018-06-12T17:18:25.896Z,28.18
2018-06-12T17:20:54.654Z,27.45
2018-06-12T17:23:23.509Z,26.86
2018-06-12T17:25:52.376Z,26.10
2018-06-12T17:28:21.110Z,27.60
2018-06-12T17:30:50.070Z,28.19
2018-06-12T17:33:18.878Z,27.30
2018-06-12T17:35:48.365Z,27.25
2018-06-12T17:38:17.878Z,26.86
2018-06-12T17:40:47.322Z,28.39
2018-06-12T17:43:16.558Z,27.60
2018-06-12T17:45:45.378Z,28.02
2018-06-12T17:48:14.197Z,27.51
2018-06-12T17:50:42.953Z,26.80
2018-06-12T17:53:11.878Z,27.56
2018-06-12T17:55:40.786Z,27.08
2018-06-12T17:58:10.587Z,27.40
2018-06-12T18:00:40.398Z,26.74
2018-06-12T18:03:09.375Z,27.32
2018-06-12T18:05:39.062Z,26.99
2018-06-12T18:08:08.668Z,26.89
2018-06-12T18:10:38.469Z,27.48
2018-06-12T18:13:08.083Z,27.48
2018-06-12T18:15:37.839Z,27.65
2018-06-12T18:18:07.274Z,28.02
2018-06-12T18:20:35.999Z,28.43
2018-06-12T18:23:04.826Z,28.06
2018-06-12T18:25:33.596Z,28.47
2018-06-12T18:28:02.438Z,29.09
2018-06-12T18:30:31.474Z,28.75
2018-06-12T18:33:00.253Z,29.75
2018-06-12T18:35:30.127Z,29.22
2018-06-12T18:37:59.602Z,29.08
2018-06-12T18:40:29.385Z,30.91
2018-06-12T18:42:58.129Z,31.86
2018-06-12T18:45:27.362Z,32.56
2018-06-12T18:47:56.288Z,33.87
2018-06-12T18:50:26.351Z,35.75
2018-06-12T18:52:55.367Z,36.09
2018-06-12T18:55:24.290Z,37.17
2018-06-12T18:57:54.119Z,39.08
2018-06-12T19:00:25.642Z,39.34
2018-06-12T19:02:54.411Z,39.38
2018-06-12T19:05:24.273Z,39.76
2018-06-12T19:07:53.991Z,41.31
2018-06-12T19:10:23.487Z,42.19
2018-06-12T19:12:53.091Z,42.56
2018-06-12T19:15:23.255Z,42.49
2018-06-12T19:17:52.618Z,43.33
2018-06-12T19:20:21.370Z,42.62
2018-06-12T19:22:51.394Z,44.71
2018-06-12T19:25:20.182Z,44.23
2018-06-12T19:27:48.936Z,43.64
2018-06-12T19:30:18.167Z,44.60
2018-06-12T19:32:46.921Z,44.46
2018-06-12T19:35:16.818Z,46.44
2018-06-12T19:37:46.575Z,45.52
2018-06-12T19:40:16.503Z,46.91
2018-06-12T19:42:45.262Z,47.08
2018-06-12T19:45:14.527Z,47.67
2018-06-12T19:47:43.326Z,48.53
2018-06-12T19:50:12.106Z,48.49
2018-06-12T19:52:41.610Z,49.70
2018-06-12T19:55:11.057Z,49.49
2018-06-12T19:57:41.254Z,51.23
2018-06-12T20:00:11.525Z,51.36
2018-06-12T20:02:41.431Z,51.70
2018-06-12T20:05:11.142Z,51.65
2018-06-12T20:07:41.553Z,51.59
2018-06-12T20:10:13.351Z,51.88
2018-06-12T20:12:43.004Z,52.12
2018-06-12T20:15:12.672Z,53.27
2018-06-12T20:17:42.542Z,53.70
2018-06-12T20:20:11.375Z,54.31
2018-06-12T20:22:41.226Z,54.75
2018-06-12T20:25:10.905Z,55.83
2018-06-12T20:27:39.966Z,56.33
2018-06-12T20:30:09.783Z,55.87
2018-06-12T20:32:38.547Z,55.83
2018-06-12T20:35:08.315Z,56.69
2018-06-12T20:37:38.186Z,56.55
2018-06-12T20:40:08.806Z,56.89
2018-06-12T20:42:37.841Z,57.30
2018-06-12T20:45:06.770Z,57.08
2018-06-12T20:47:35.655Z,58.51
2018-06-12T20:50:04.643Z,58.33
2018-06-12T20:52:33.517Z,58.74
2018-06-12T20:55:02.348Z,59.35
2018-06-12T20:57:31.110Z,59.43
2018-06-12T21:00:00.866Z,58.75
2018-06-12T21:02:30.607Z,59.38
2018-06-12T21:05:00.323Z,59.47
2018-06-12T21:07:30.050Z,59.99
2018-06-12T21:09:58.842Z,60.01
2018-06-12T21:12:27.656Z,60.61
2018-06-12T21:14:57.338Z,61.11
2018-06-12T21:17:27.386Z,61.74
2018-06-12T21:19:56.430Z,61.80
2018-06-12T21:22:25.475Z,62.10
2018-06-12T21:24:55.029Z,62.61
2018-06-12T21:27:23.902Z,62.67
2018-06-12T21:29:52.860Z,63.16
2018-06-12T21:32:21.652Z,63.81
2018-06-12T21:34:51.779Z,62.59
2018-06-12T21:37:20.490Z,63.37
2018-06-12T21:39:50.069Z,63.24
2018-06-12T21:42:19.549Z,63.98
2018-06-12T21:44:48.314Z,63.32
2018-06-12T21:47:17.140Z,63.77
2018-06-12T21:49:46.245Z,64.22
2018-06-12T21:52:15.048Z,63.77
2018-06-12T21:54:44.100Z,64.68
2018-06-12T21:57:14.155Z,64.63
2018-06-12T21:59:43.755Z,64.12
2018-06-12T22:02:13.462Z,64.72
2018-06-12T22:04:42.253Z,64.70
2018-06-12T22:07:12.251Z,65.06
2018-06-12T22:09:41.291Z,65.58
2018-06-12T22:12:11.499Z,66.28
2018-06-12T22:14:42.422Z,66.03
2018-06-12T22:17:12.026Z,66.79
2018-06-12T22:19:43.630Z,67.33
2018-06-12T22:22:12.454Z,66.80
2018-06-12T22:24:42.230Z,67.74
2018-06-12T22:27:11.308Z,67.50
2018-06-12T22:29:42.168Z,68.22
2018-06-12T22:32:11.258Z,68.69
2018-06-12T22:34:41.395Z,68.14
2018-06-12T22:37:11.427Z,67.61
2018-06-12T22:39:41.842Z,68.33
2018-06-12T22:42:11.442Z,67.81
2018-06-12T22:44:41.038Z,67.60
2018-06-12T22:47:09.971Z,68.77
2018-06-12T22:49:39.451Z,68.77
2018-06-12T22:53:11.036Z,68.26
2018-06-12T22:55:40.854Z,68.06
2018-06-12T22:58:11.298Z,68.67
2018-06-12T23:00:41.779Z,68.96
2018-06-12T23:03:11.231Z,69.46
2018-06-12T23:05:42.958Z,68.72
2018-06-12T23:08:12.374Z,69.20
2018-06-12T23:10:41.321Z,69.62
2018-06-12T23:13:11.259Z,69.40
2018-06-12T23:15:41.607Z,70.03
2018-06-12T23:18:11.167Z,70.52
2018-06-12T23:20:51.482Z,71.21
2018-06-12T23:23:20.473Z,70.15
2018-06-12T23:25:49.254Z,71.54
2018-06-12T23:28:18.254Z,70.86
2018-06-12T23:30:47.104Z,71.64
2018-06-12T23:33:15.874Z,72.53
2018-06-12T23:35:45.763Z,71.77
2018-06-12T23:38:14.911Z,72.13
2018-06-12T23:40:44.348Z,71.84
2018-06-12T23:43:13.134Z,71.76
2018-06-12T23:45:42.689Z,71.99
2018-06-12T23:48:11.446Z,72.53
2018-06-12T23:50:40.790Z,72.55
2018-06-12T23:53:10.831Z,72.37
2018-06-12T23:55:40.454Z,72.02
2018-06-12T23:58:10.884Z,71.84
